createdAt,value
2022-07-31T00:00:25.792Z,47.00
2022-07-31T00:02:52.612Z,47.20
2022-07-31T00:05:19.405Z,46.80
2022-07-31T00:07:46.260Z,47.00
2022-07-31T00:10:13.177Z,47.30
2022-07-31T00:12:39.914Z,47.40
2022-07-31T00:15:09.953Z,47.60
2022-07-31T00:17:42.017Z,47.60
2022-07-31T00:20:13.405Z,47.70
2022-07-31T00:22:50.420Z,47.90
2022-07-31T00:25:17.763Z,47.90
2022-07-31T00:27:45.104Z,47.90
2022-07-31T00:30:13.488Z,48.10
2022-07-31T00:32:41.676Z,47.90
2022-07-31T00:35:09.092Z,47.50
2022-07-31T00:37:37.572Z,47.20
2022-07-31T00:40:08.706Z,47.30
2022-07-31T00:42:36.173Z,47.20
2022-07-31T00:45:03.187Z,47.60
2022-07-31T00:47:32.933Z,47.80
2022-07-31T00:50:00.929Z,47.70
2022-07-31T00:52:27.818Z,47.90
2022-07-31T00:54:54.617Z,48.20
2022-07-31T00:57:21.445Z,48.40
2022-07-31T00:59:48.670Z,48.70
2022-07-31T01:02:15.626Z,48.70
2022-07-31T01:04:44.521Z,48.60
2022-07-31T01:07:12.847Z,48.60
2022-07-31T01:09:39.974Z,48.80
2022-07-31T01:12:15.396Z,48.80
2022-07-31T01:14:48.348Z,48.90
2022-07-31T01:17:17.948Z,48.80
2022-07-31T01:19:47.528Z,48.70
2022-07-31T01:22:54.369Z,48.80
2022-07-31T01:25:33.399Z,48.90
2022-07-31T01:29:02.231Z,48.70
2022-07-31T01:31:52.450Z,48.80
2022-07-31T01:34:40.040Z,48.80
2022-07-31T01:37:15.771Z,48.70
2022-07-31T01:39:48.303Z,48.80
2022-07-31T01:42:18.365Z,48.70
2022-07-31T01:44:51.516Z,48.90
2022-07-31T01:47:21.512Z,49.00
2022-07-31T01:49:51.585Z,49.20
2022-07-31T01:52:22.408Z,49.20
2022-07-31T01:54:51.440Z,49.30
2022-07-31T01:57:21.907Z,49.40
2022-07-31T01:59:56.655Z,49.60
2022-07-31T02:02:44.510Z,49.80
2022-07-31T02:05:12.622Z,49.70
2022-07-31T02:07:41.687Z,49.70
2022-07-31T02:10:15.100Z,49.50
2022-07-31T02:12:44.016Z,49.40
2022-07-31T02:15:13.392Z,49.30
2022-07-31T02:17:45.237Z,49.10
2022-07-31T02:20:46.736Z,49.20
2022-07-31T02:23:13.573Z,49.40
2022-07-31T02:25:41.214Z,49.60
2022-07-31T02:28:13.238Z,49.70
2022-07-31T02:30:44.217Z,49.60
2022-07-31T02:33:16.748Z,49.60
2022-07-31T02:35:47.826Z,49.30
2022-07-31T02:38:22.566Z,49.40
2022-07-31T02:40:54.157Z,49.50
2022-07-31T02:43:21.605Z,49.70
2022-07-31T02:45:48.737Z,49.70
2022-07-31T02:48:16.136Z,49.70
2022-07-31T02:50:48.343Z,49.80
2022-07-31T02:53:15.777Z,49.80
2022-07-31T02:55:47.357Z,49.70
2022-07-31T02:58:14.629Z,49.70
2022-07-31T03:00:45.899Z,50.00
2022-07-31T03:03:13.508Z,50.00
2022-07-31T03:05:41.818Z,50.00
2022-07-31T03:08:08.586Z,50.00
2022-07-31T03:10:38.578Z,50.00
2022-07-31T03:13:06.631Z,50.00
2022-07-31T03:15:34.867Z,50.10
2022-07-31T03:18:01.909Z,50.20
2022-07-31T03:20:41.476Z,50.20
2022-07-31T03:23:11.242Z,50.00
2022-07-31T03:25:49.119Z,50.20
2022-07-31T03:28:17.033Z,50.00
2022-07-31T03:30:43.816Z,50.80
2022-07-31T03:33:10.723Z,50.00
2022-07-31T03:35:42.086Z,49.90
2022-07-31T03:38:41.564Z,50.00
2022-07-31T03:41:00.960Z,50.00
2022-07-31T03:43:30.592Z,50.00
2022-07-31T03:46:16.909Z,50.30
2022-07-31T03:48:44.245Z,50.50
2022-07-31T03:51:11.372Z,50.50
2022-07-31T03:53:38.776Z,50.50
2022-07-31T03:56:11.586Z,50.20
2022-07-31T03:58:38.765Z,50.00
2022-07-31T04:01:10.367Z,50.50
2022-07-31T04:03:39.354Z,50.70
2022-07-31T04:06:30.376Z,50.80
2022-07-31T04:08:57.678Z,50.90
2022-07-31T04:11:24.463Z,51.10
2022-07-31T04:13:51.211Z,51.10
2022-07-31T04:16:17.967Z,52.20
2022-07-31T04:18:50.708Z,51.50
2022-07-31T04:21:18.034Z,51.70
2022-07-31T04:23:50.331Z,51.90
2022-07-31T04:26:36.151Z,51.90
2022-07-31T04:29:04.545Z,52.00
2022-07-31T04:31:32.197Z,52.20
2022-07-31T04:33:59.139Z,52.40
2022-07-31T04:36:30.465Z,52.50
2022-07-31T04:39:00.665Z,52.70
2022-07-31T04:41:28.477Z,52.60
2022-07-31T04:43:57.843Z,52.80
2022-07-31T04:46:25.615Z,52.90
2022-07-31T04:48:52.873Z,53.20
2022-07-31T04:51:21.685Z,53.10
2022-07-31T04:53:50.310Z,53.20
2022-07-31T04:56:41.894Z,53.20
2022-07-31T04:59:11.581Z,53.00
2022-07-31T05:01:42.241Z,53.20
2022-07-31T05:04:10.597Z,53.10
2022-07-31T05:06:39.618Z,52.90
2022-07-31T05:09:10.050Z,52.90
2022-07-31T05:11:39.762Z,53.00
2022-07-31T05:14:08.143Z,53.10
2022-07-31T05:16:36.024Z,52.90
2022-07-31T05:19:04.630Z,52.80
2022-07-31T05:21:53.676Z,52.90
2022-07-31T05:24:32.720Z,52.90
2022-07-31T05:27:08.568Z,52.80
2022-07-31T05:29:35.593Z,52.90
2022-07-31T05:32:02.800Z,53.40
2022-07-31T05:34:32.289Z,53.30
2022-07-31T05:37:02.572Z,53.10
2022-07-31T05:39:31.849Z,53.10
2022-07-31T05:42:17.128Z,53.10
2022-07-31T05:45:03.112Z,53.40
2022-07-31T05:47:40.198Z,53.70
2022-07-31T05:50:09.280Z,53.40
2022-07-31T05:52:36.227Z,53.50
2022-07-31T05:55:19.708Z,53.70
2022-07-31T05:58:05.662Z,53.70
2022-07-31T06:00:33.071Z,53.40
2022-07-31T06:03:01.115Z,53.60
2022-07-31T06:05:46.048Z,53.50
2022-07-31T06:08:13.179Z,53.40
2022-07-31T06:10:44.298Z,53.50
2022-07-31T06:13:12.346Z,53.30
2022-07-31T06:15:39.356Z,53.50
2022-07-31T06:18:13.054Z,53.70
2022-07-31T06:20:39.867Z,53.60
2022-07-31T06:23:20.013Z,53.50
2022-07-31T06:26:00.246Z,53.50
2022-07-31T06:28:37.898Z,53.60
2022-07-31T06:31:21.448Z,53.90
2022-07-31T06:33:50.840Z,53.90
2022-07-31T06:36:21.732Z,53.50
2022-07-31T06:38:58.323Z,53.70
2022-07-31T06:41:46.821Z,53.50
2022-07-31T06:44:29.324Z,53.50
2022-07-31T06:47:16.094Z,54.20
2022-07-31T06:49:49.379Z,54.40
2022-07-31T06:52:16.734Z,54.50
2022-07-31T06:54:44.309Z,54.30
2022-07-31T06:57:12.533Z,54.60
2022-07-31T06:59:40.806Z,54.70
2022-07-31T07:02:08.867Z,54.50
2022-07-31T07:05:04.621Z,54.40
2022-07-31T07:07:23.541Z,54.40
2022-07-31T07:09:51.973Z,54.40
2022-07-31T07:12:38.172Z,54.30
2022-07-31T07:15:06.113Z,54.40
2022-07-31T07:17:33.216Z,54.70
2022-07-31T07:20:00.719Z,54.60
2022-07-31T07:22:31.618Z,54.60
2022-07-31T07:25:01.262Z,54.90
2022-07-31T07:27:28.520Z,54.60
2022-07-31T07:29:56.443Z,54.40
2022-07-31T07:32:23.584Z,54.50
2022-07-31T07:34:59.793Z,54.30
2022-07-31T07:37:46.243Z,54.20
2022-07-31T07:40:13.851Z,54.20
2022-07-31T07:42:41.157Z,55.20
2022-07-31T07:45:08.635Z,55.80
2022-07-31T07:48:05.057Z,55.60
2022-07-31T07:50:27.135Z,55.60
2022-07-31T07:53:19.070Z,55.80
2022-07-31T07:56:08.961Z,55.50
2022-07-31T07:58:55.498Z,55.70
2022-07-31T08:01:41.227Z,55.70
2022-07-31T08:04:17.524Z,55.00
2022-07-31T08:06:44.492Z,55.00
2022-07-31T08:09:11.306Z,54.80
2022-07-31T08:12:04.983Z,55.00
2022-07-31T08:15:01.861Z,55.00
2022-07-31T08:17:54.656Z,55.60
2022-07-31T08:20:22.413Z,55.50
2022-07-31T08:22:50.755Z,55.50
2022-07-31T08:25:17.653Z,55.40
2022-07-31T08:27:47.818Z,55.40
2022-07-31T08:30:15.971Z,55.50
2022-07-31T08:32:43.033Z,55.30
2022-07-31T08:35:10.026Z,55.50
2022-07-31T08:37:52.120Z,55.90
2022-07-31T08:40:28.591Z,56.70
2022-07-31T08:42:56.729Z,58.40
2022-07-31T08:45:29.259Z,58.30
2022-07-31T08:48:08.802Z,58.90
2022-07-31T08:50:45.868Z,59.20
2022-07-31T08:53:36.720Z,59.20
2022-07-31T08:56:13.431Z,59.00
2022-07-31T08:58:40.288Z,59.10
2022-07-31T09:01:11.598Z,58.90
2022-07-31T09:03:38.811Z,58.70
2022-07-31T09:06:07.614Z,58.60
2022-07-31T09:08:36.224Z,58.30
2022-07-31T09:11:09.708Z,58.80
2022-07-31T09:13:39.679Z,58.40
2022-07-31T09:16:30.826Z,58.20
2022-07-31T09:19:52.507Z,58.20
2022-07-31T09:21:52.629Z,58.40
2022-07-31T09:24:32.807Z,57.80
2022-07-31T09:27:09.363Z,58.10
2022-07-31T09:29:37.942Z,58.60
2022-07-31T09:32:13.689Z,58.80
2022-07-31T09:35:13.889Z,59.00
2022-07-31T09:37:46.265Z,59.40
2022-07-31T09:40:37.510Z,59.60
2022-07-31T09:44:09.660Z,60.00
2022-07-31T09:46:45.970Z,59.80
2022-07-31T09:49:14.044Z,59.40
2022-07-31T09:51:46.942Z,59.20
2022-07-31T09:54:23.171Z,59.40
2022-07-31T09:57:09.721Z,59.50
2022-07-31T09:59:37.593Z,60.00
2022-07-31T10:02:07.564Z,60.00
2022-07-31T10:04:37.642Z,60.00
2022-07-31T10:07:06.367Z,60.10
2022-07-31T10:09:34.645Z,59.50
2022-07-31T10:12:19.407Z,59.30
2022-07-31T10:14:49.663Z,59.20
2022-07-31T10:17:23.245Z,58.50
2022-07-31T10:20:17.404Z,58.40
2022-07-31T10:23:19.642Z,58.30
2022-07-31T10:25:53.693Z,57.40
2022-07-31T10:28:22.744Z,56.80
2022-07-31T10:30:50.206Z,57.60
2022-07-31T10:33:42.439Z,57.60
2022-07-31T10:36:27.752Z,57.50
2022-07-31T10:39:15.724Z,57.60
2022-07-31T10:42:17.139Z,58.10
2022-07-31T10:45:13.847Z,58.40
2022-07-31T10:48:03.022Z,58.40
2022-07-31T10:51:09.602Z,59.20
2022-07-31T10:54:00.475Z,59.80
2022-07-31T10:56:58.207Z,60.20
2022-07-31T10:59:51.692Z,60.30
2022-07-31T11:02:44.997Z,60.20
2022-07-31T11:06:00.849Z,60.50
2022-07-31T11:08:47.632Z,60.80
2022-07-31T11:11:36.763Z,60.10
2022-07-31T11:14:40.460Z,60.30
2022-07-31T11:18:23.395Z,60.30
2022-07-31T11:20:38.089Z,60.20
2022-07-31T11:23:08.434Z,60.60
2022-07-31T11:25:37.311Z,60.90
2022-07-31T11:28:19.072Z,61.00
2022-07-31T11:30:59.607Z,61.10
2022-07-31T11:33:41.925Z,61.00
2022-07-31T11:36:30.017Z,61.20
2022-07-31T11:38:57.083Z,60.90
2022-07-31T11:41:30.884Z,61.00
2022-07-31T11:44:11.139Z,60.90
2022-07-31T11:46:38.034Z,60.90
2022-07-31T11:49:05.245Z,61.10
2022-07-31T11:51:32.053Z,61.00
2022-07-31T11:54:00.046Z,61.20
2022-07-31T11:56:27.821Z,60.80
2022-07-31T11:58:57.409Z,61.00
2022-07-31T12:01:29.557Z,61.20
2022-07-31T12:03:57.727Z,60.60
2022-07-31T12:06:36.773Z,61.30
2022-07-31T12:09:04.277Z,61.50
2022-07-31T12:11:31.447Z,61.50
2022-07-31T12:13:59.380Z,61.30
2022-07-31T12:16:26.677Z,61.00
2022-07-31T12:18:56.916Z,60.50
2022-07-31T12:21:35.179Z,60.60
2022-07-31T12:24:02.476Z,60.70
2022-07-31T12:26:33.473Z,60.80
2022-07-31T12:29:01.465Z,60.50
2022-07-31T12:31:29.810Z,60.10
2022-07-31T12:33:56.781Z,60.30
2022-07-31T12:36:23.682Z,59.90
2022-07-31T12:39:02.585Z,59.50
2022-07-31T12:41:30.510Z,59.40
2022-07-31T12:44:13.120Z,59.80
2022-07-31T12:46:41.504Z,60.00
2022-07-31T12:49:08.599Z,59.90
2022-07-31T12:51:44.836Z,60.60
2022-07-31T12:54:15.658Z,60.00
2022-07-31T12:56:43.876Z,59.20
2022-07-31T12:59:11.039Z,58.40
2022-07-31T13:01:38.445Z,56.40
2022-07-31T13:04:07.770Z,55.40
2022-07-31T13:06:37.412Z,55.60
2022-07-31T13:09:04.937Z,56.70
2022-07-31T13:11:45.602Z,56.60
2022-07-31T13:14:14.807Z,57.50
2022-07-31T13:16:41.629Z,58.10
2022-07-31T13:19:08.522Z,58.80
2022-07-31T13:21:38.611Z,59.10
2022-07-31T13:24:16.051Z,58.70
2022-07-31T13:26:45.156Z,58.10
2022-07-31T13:29:12.205Z,58.20
2022-07-31T13:31:39.306Z,58.50
2022-07-31T13:34:06.391Z,58.00
2022-07-31T13:36:38.627Z,58.40
2022-07-31T13:39:06.359Z,58.40
2022-07-31T13:41:35.188Z,58.40
2022-07-31T13:44:02.613Z,58.60
2022-07-31T13:46:29.670Z,58.40
2022-07-31T13:48:59.243Z,57.90
2022-07-31T13:51:28.872Z,57.90
2022-07-31T13:53:56.123Z,57.70
2022-07-31T13:56:39.045Z,57.40
2022-07-31T13:59:11.326Z,57.50
2022-07-31T14:02:03.661Z,58.00
2022-07-31T14:04:26.385Z,58.50
2022-07-31T14:06:58.386Z,58.40
2022-07-31T14:09:28.116Z,59.10
2022-07-31T14:11:56.137Z,59.30
2022-07-31T14:14:23.942Z,59.10
2022-07-31T14:16:51.321Z,59.00
2022-07-31T14:19:18.127Z,58.00
2022-07-31T14:21:56.262Z,58.10
2022-07-31T14:24:25.350Z,58.20
2022-07-31T14:26:52.373Z,58.40
2022-07-31T14:29:19.469Z,58.00
2022-07-31T14:31:46.247Z,57.60
2022-07-31T14:34:13.156Z,58.30
2022-07-31T14:36:40.018Z,59.20
2022-07-31T14:39:06.771Z,60.30
2022-07-31T14:41:33.508Z,60.60
2022-07-31T14:44:00.486Z,60.60
2022-07-31T14:46:27.214Z,60.90
2022-07-31T14:48:54.101Z,61.00
2022-07-31T14:51:21.102Z,61.40
2022-07-31T14:53:47.963Z,61.30
2022-07-31T14:56:23.441Z,61.20
2022-07-31T14:59:01.524Z,60.80
2022-07-31T15:01:30.624Z,60.70
2022-07-31T15:03:58.587Z,60.50
2022-07-31T15:06:39.514Z,61.00
2022-07-31T15:09:16.352Z,60.60
2022-07-31T15:11:59.660Z,60.00
2022-07-31T15:14:28.090Z,59.50
2022-07-31T15:16:54.966Z,59.60
2022-07-31T15:19:22.133Z,59.20
2022-07-31T15:22:15.900Z,59.50
2022-07-31T15:24:36.090Z,59.50
2022-07-31T15:27:03.339Z,59.40
2022-07-31T15:30:04.615Z,58.70
2022-07-31T15:32:17.075Z,59.10
2022-07-31T15:34:44.117Z,59.50
2022-07-31T15:37:10.906Z,59.90
2022-07-31T15:40:02.042Z,60.50
2022-07-31T15:42:34.166Z,61.10
2022-07-31T15:45:01.151Z,61.10
2022-07-31T15:47:28.130Z,61.50
2022-07-31T15:49:55.136Z,61.70
2022-07-31T15:52:21.981Z,62.20
2022-07-31T15:54:52.091Z,62.50
2022-07-31T15:57:23.094Z,63.50
2022-07-31T15:59:51.032Z,62.90
2022-07-31T16:02:18.029Z,62.80
2022-07-31T16:04:51.498Z,62.90
2022-07-31T16:08:31.201Z,62.60
2022-07-31T16:10:15.253Z,62.70
2022-07-31T16:12:48.054Z,62.60
2022-07-31T16:15:16.414Z,62.70
2022-07-31T16:17:44.144Z,62.80
2022-07-31T16:20:25.283Z,63.60
2022-07-31T16:22:58.642Z,63.80
2022-07-31T16:25:27.307Z,63.90
2022-07-31T16:27:54.668Z,63.70
2022-07-31T16:30:22.335Z,63.30
2022-07-31T16:32:49.745Z,63.70
2022-07-31T16:35:16.480Z,62.90
2022-07-31T16:37:52.377Z,62.50
2022-07-31T16:40:29.873Z,62.20
2022-07-31T16:43:47.673Z,62.00
2022-07-31T16:45:51.180Z,61.70
2022-07-31T16:48:18.215Z,61.70
2022-07-31T16:50:47.412Z,62.00
2022-07-31T16:54:11.219Z,61.60
2022-07-31T16:56:06.592Z,62.00
2022-07-31T16:58:33.405Z,62.00
2022-07-31T17:01:00.305Z,62.00
2022-07-31T17:03:58.968Z,61.90
2022-07-31T17:06:14.053Z,62.40
2022-07-31T17:08:42.313Z,62.40
2022-07-31T17:11:09.197Z,62.60
2022-07-31T17:13:35.984Z,62.10
2022-07-31T17:16:02.756Z,62.60
2022-07-31T17:18:29.561Z,62.70
2022-07-31T17:20:56.862Z,62.90
2022-07-31T17:23:27.722Z,62.40
2022-07-31T17:26:21.485Z,62.50
2022-07-31T17:28:50.445Z,62.50
2022-07-31T17:31:18.113Z,62.70
2022-07-31T17:33:54.706Z,62.90
2022-07-31T17:36:29.003Z,62.80
2022-07-31T17:38:58.917Z,63.40
2022-07-31T17:41:26.272Z,63.70
2022-07-31T17:43:56.229Z,63.40
2022-07-31T17:46:34.304Z,64.30
2022-07-31T17:49:04.242Z,63.80
2022-07-31T17:51:31.221Z,63.20
2022-07-31T17:53:59.654Z,63.40
2022-07-31T17:56:26.963Z,63.50
2022-07-31T17:58:54.018Z,63.40
2022-07-31T18:01:24.410Z,63.40
2022-07-31T18:03:53.856Z,63.40
2022-07-31T18:06:20.613Z,63.50
2022-07-31T18:08:47.373Z,63.50
2022-07-31T18:11:14.218Z,63.70
2022-07-31T18:13:48.555Z,64.00
2022-07-31T18:16:19.241Z,64.50
2022-07-31T18:18:46.235Z,65.00
2022-07-31T18:21:14.162Z,65.50
2022-07-31T18:23:43.641Z,65.70
2022-07-31T18:26:14.952Z,65.80
2022-07-31T18:28:42.391Z,65.90
2022-07-31T18:31:24.171Z,65.90
2022-07-31T18:33:56.009Z,66.10
2022-07-31T18:36:22.912Z,66.30
2022-07-31T18:38:51.927Z,66.30
2022-07-31T18:41:18.864Z,66.30
2022-07-31T18:43:48.355Z,66.50
2022-07-31T18:46:15.567Z,67.30
2022-07-31T18:48:42.346Z,66.50
2022-07-31T18:51:09.283Z,66.50
2022-07-31T18:53:36.120Z,66.30
2022-07-31T18:56:03.235Z,66.30
2022-07-31T18:58:30.644Z,66.40
2022-07-31T19:00:57.674Z,66.40
2022-07-31T19:03:26.208Z,66.40
2022-07-31T19:05:53.481Z,66.30
2022-07-31T19:08:20.813Z,67.10
2022-07-31T19:10:49.375Z,66.10
2022-07-31T19:13:18.866Z,66.10
2022-07-31T19:15:51.520Z,66.50
2022-07-31T19:18:26.385Z,66.80
2022-07-31T19:21:19.008Z,66.80
2022-07-31T19:23:43.835Z,67.40
2022-07-31T19:26:10.806Z,66.60
2022-07-31T19:28:39.596Z,66.40
2022-07-31T19:31:07.037Z,66.50
2022-07-31T19:33:34.024Z,66.70
2022-07-31T19:36:02.568Z,66.70
2022-07-31T19:38:35.765Z,66.70
2022-07-31T19:41:03.365Z,66.60
2022-07-31T19:43:30.691Z,66.70
2022-07-31T19:46:09.662Z,66.80
2022-07-31T19:48:40.588Z,66.60
2022-07-31T19:51:08.940Z,66.80
2022-07-31T19:53:35.963Z,66.90
2022-07-31T19:56:05.750Z,67.00
2022-07-31T19:58:34.661Z,66.90
2022-07-31T20:01:02.765Z,67.20
2022-07-31T20:03:29.777Z,67.40
2022-07-31T20:05:57.241Z,67.30
2022-07-31T20:08:24.211Z,67.20
2022-07-31T20:10:54.468Z,67.10
2022-07-31T20:13:21.260Z,67.00
2022-07-31T20:15:52.016Z,67.00
2022-07-31T20:18:29.568Z,67.10
2022-07-31T20:21:08.191Z,67.10
2022-07-31T20:23:38.558Z,66.90
2022-07-31T20:26:11.422Z,66.90
2022-07-31T20:28:42.466Z,66.80
2022-07-31T20:31:18.507Z,66.50
2022-07-31T20:33:56.878Z,66.60
2022-07-31T20:36:26.022Z,66.50
2022-07-31T20:38:52.877Z,66.40
2022-07-31T20:41:19.817Z,66.40
2022-07-31T20:43:46.664Z,66.50
2022-07-31T20:46:15.700Z,67.30
2022-07-31T20:48:45.146Z,66.40
2022-07-31T20:51:19.120Z,66.20
2022-07-31T20:53:48.373Z,66.20
2022-07-31T20:56:16.297Z,66.10
2022-07-31T20:58:46.234Z,66.10
2022-07-31T21:01:20.054Z,66.10
2022-07-31T21:03:47.404Z,66.10
2022-07-31T21:06:14.733Z,66.20
2022-07-31T21:08:41.634Z,66.20
2022-07-31T21:11:08.781Z,66.00
2022-07-31T21:13:36.313Z,66.20
2022-07-31T21:16:03.794Z,66.00
2022-07-31T21:18:34.599Z,66.00
2022-07-31T21:21:02.592Z,66.00
2022-07-31T21:23:29.433Z,65.80
2022-07-31T21:25:58.569Z,65.80
2022-07-31T21:28:27.420Z,66.00
2022-07-31T21:30:56.197Z,65.80
2022-07-31T21:33:25.658Z,65.70
2022-07-31T21:35:53.597Z,65.80
2022-07-31T21:38:21.080Z,65.60
2022-07-31T21:40:48.736Z,65.40
2022-07-31T21:43:22.611Z,65.50
2022-07-31T21:45:57.586Z,65.50
2022-07-31T21:48:31.296Z,65.50
2022-07-31T21:50:59.394Z,65.70
2022-07-31T21:53:26.340Z,65.40
2022-07-31T21:55:53.265Z,65.30
2022-07-31T21:58:20.166Z,64.90
2022-07-31T22:00:47.405Z,64.50
2022-07-31T22:03:14.428Z,64.50
2022-07-31T22:05:59.846Z,64.30
2022-07-31T22:08:26.919Z,64.30
2022-07-31T22:10:54.428Z,64.50
2022-07-31T22:13:21.598Z,64.50
2022-07-31T22:15:58.500Z,64.50
2022-07-31T22:18:29.918Z,64.60
2022-07-31T22:20:57.763Z,64.50
2022-07-31T22:23:27.375Z,64.90
2022-07-31T22:25:54.787Z,64.90
2022-07-31T22:28:23.466Z,64.50
2022-07-31T22:30:51.432Z,64.60
2022-07-31T22:33:18.833Z,64.90
2022-07-31T22:35:59.023Z,65.00
2022-07-31T22:38:30.056Z,64.50
2022-07-31T22:41:00.972Z,64.70
2022-07-31T22:44:13.555Z,64.80
2022-07-31T22:46:15.904Z,64.70
2022-07-31T22:48:45.541Z,64.70
2022-07-31T22:51:18.834Z,64.70
2022-07-31T22:53:49.016Z,64.60
2022-07-31T22:56:16.834Z,64.20
2022-07-31T22:58:46.481Z,63.90
2022-07-31T23:01:13.485Z,64.20
2022-07-31T23:03:40.592Z,64.20
2022-07-31T23:06:30.552Z,64.20
2022-07-31T23:08:55.364Z,64.20
2022-07-31T23:11:25.695Z,64.30
2022-07-31T23:13:55.480Z,64.10
2022-07-31T23:16:22.373Z,64.20
2022-07-31T23:18:49.947Z,64.10
2022-07-31T23:21:18.666Z,64.20
2022-07-31T23:23:49.128Z,64.20
2022-07-31T23:26:20.944Z,64.20
2022-07-31T23:28:48.487Z,64.20
2022-07-31T23:31:18.323Z,64.00
2022-07-31T23:33:46.562Z,64.00
2022-07-31T23:36:13.904Z,64.10
2022-07-31T23:38:41.178Z,63.90
2022-07-31T23:41:11.371Z,64.10
2022-07-31T23:43:38.255Z,64.20
2022-07-31T23:46:06.231Z,64.20
2022-07-31T23:48:34.821Z,64.20
2022-07-31T23:51:03.185Z,64.20
2022-07-31T23:53:30.153Z,64.20
2022-07-31T23:55:57.460Z,64.40
2022-07-31T23:58:24.306Z,64.20
